首页
METAR-TAF:

METAR-TAF

机场 :

溫哥華國際機場

溫哥華, 不列颠哥伦比亚, 加拿大

纬度: 49-11N, 经度: 123-10W, 海拔: 3米

当前天气观测

该预报发布于24分钟前的11:00 UTC
风速2节,风向东北
温度 5°C
湿度 93%
气压 1033 hPa
能見度: 19.3公里
少量云层高于700英尺
阴天层高于3300英尺

METAR: CYVR 241100Z 05002KT 12SM FEW007 OVC033 05/04 A3051 RMK CF1SC8 CF TR SLP332

时间: 03:24 (11:24 UTC)

预报

该预报发布于2小时和46分钟前的08:38 UTC
预报有效从24日的 09点(UTC)到 25日的 12点(UTC)
风速3节,风向多变
能見度: 10公里
散云层高于2000英尺
阴天层高于4000英尺
短暂存在
从 24日的 09点(UTC)到 24日的 11点(UTC)
阴天层高于2000英尺
从 24日的 1100点(UTC)
风速5节,风向东转东北
能見度: 10公里
散云层高于700英尺
阴天层高于1500英尺
短暂存在
从 24日的 11点(UTC)到 24日的 18点(UTC)
能見度: 8.0公里
多云层高于700英尺
阴天层高于1200英尺
小毛毛雨, 轻雾
从 24日的 1800点(UTC)
风速6节,风向
能見度: 10公里
散云层高于1500英尺
多云层高于2500英尺
短暂存在
从 24日的 18点(UTC)到 25日的 03点(UTC)
多云层高于1500英尺
成为
从 24日的 19点(UTC)到 24日的 21点(UTC)
风速6节,风向西
从 25日的 0300点(UTC)
风速5节,风向西
能見度: 10公里
散云层高于800英尺
多云层高于1500英尺

TAF: CYVR 240838Z 2409/2512 VRB03KT P6SM SCT020 OVC040 TEMPO 2409/2411 OVC020 FM241100 07005KT P6SM SCT007 OVC015 TEMPO 2411/2418 5SM -DZ BR BKN007 OVC012 FM241800 08006KT P6SM SCT015 BKN025 TEMPO 2418/2503 BKN015 BECMG 2419/2421 26006KT FM250300 28005KT P6SM SCT008 BKN015 RMK NXT FCST BY 241200Z

超过4000个机场的气象观测和天气预报(METAR&TAF报告)。

可查询的气象台以黄色和红色小点在地图上表示。

将鼠标移到小点上方,可查看气象台名称。

然后点击查看天气观测和预报。

如需切换地图:点击带黑十字的绿色按钮放大地图;点击带横线的绿色按钮缩小地图;或者点击绿色箭头查看邻近地区的地图。


METAR-TAF: